sensor_id;sensor_type;location;lat;lon;timestamp;pressure;altitude;pressure_sealevel;temperature;humidity
46756;BME280;32506;52.826;-1.192;2023-08-30T00:00:18;100164.38;;;11.62;53.10
46756;BME280;32506;52.826;-1.192;2023-08-30T00:02:46;100164.81;;;11.59;53.28
46756;BME280;32506;52.826;-1.192;2023-08-30T00:05:12;100170.63;;;11.56;53.06
46756;BME280;32506;52.826;-1.192;2023-08-30T00:07:38;100170.06;;;11.54;52.79
46756;BME280;32506;52.826;-1.192;2023-08-30T00:10:04;100171.31;;;11.51;53.18
46756;BME280;32506;52.826;-1.192;2023-08-30T00:12:29;100171.78;;;11.48;52.91
46756;BME280;32506;52.826;-1.192;2023-08-30T00:14:55;100172.22;;;11.45;52.90
46756;BME280;32506;52.826;-1.192;2023-08-30T00:17:20;100169.22;;;11.41;52.72
46756;BME280;32506;52.826;-1.192;2023-08-30T00:19:46;100166.72;;;11.40;52.77
46756;BME280;32506;52.826;-1.192;2023-08-30T00:22:13;100169.88;;;11.37;52.73
46756;BME280;32506;52.826;-1.192;2023-08-30T00:24:39;100174.66;;;11.35;52.62
46756;BME280;32506;52.826;-1.192;2023-08-30T00:27:04;100174.28;;;11.31;53.02
46756;BME280;32506;52.826;-1.192;2023-08-30T00:29:30;100176.34;;;11.29;53.05
46756;BME280;32506;52.826;-1.192;2023-08-30T00:31:55;100161.56;;;11.27;53.13
46756;BME280;32506;52.826;-1.192;2023-08-30T00:34:21;100170.91;;;11.24;53.41
46756;BME280;32506;52.826;-1.192;2023-08-30T00:36:47;100161.47;;;11.21;53.39
46756;BME280;32506;52.826;-1.192;2023-08-30T00:39:13;100163.53;;;11.19;53.46
46756;BME280;32506;52.826;-1.192;2023-08-30T00:41:38;100165.63;;;11.17;53.62
46756;BME280;32506;52.826;-1.192;2023-08-30T00:44:04;100168.50;;;11.16;53.70
46756;BME280;32506;52.826;-1.192;2023-08-30T00:46:30;100164.66;;;11.12;53.82
46756;BME280;32506;52.826;-1.192;2023-08-30T00:48:57;100162.22;;;11.10;53.87
46756;BME280;32506;52.826;-1.192;2023-08-30T00:51:23;100161.66;;;11.08;53.96
46756;BME280;32506;52.826;-1.192;2023-08-30T00:53:48;100168.84;;;11.07;54.09
46756;BME280;32506;52.826;-1.192;2023-08-30T00:56:15;100155.91;;;11.04;53.86
46756;BME280;32506;52.826;-1.192;2023-08-30T00:58:40;100164.19;;;11.03;53.89
46756;BME280;32506;52.826;-1.192;2023-08-30T01:01:06;100168.69;;;11.02;53.95
46756;BME280;32506;52.826;-1.192;2023-08-30T01:03:34;100163.56;;;11.01;54.05
46756;BME280;32506;52.826;-1.192;2023-08-30T01:06:01;100163.81;;;10.99;54.30
46756;BME280;32506;52.826;-1.192;2023-08-30T01:08:27;100159.72;;;10.97;54.04
46756;BME280;32506;52.826;-1.192;2023-08-30T01:11:02;100152.72;;;10.96;54.46
46756;BME280;32506;52.826;-1.192;2023-08-30T01:13:32;100152.16;;;10.94;54.55
46756;BME280;32506;52.826;-1.192;2023-08-30T01:15:58;100152.16;;;10.94;54.64
46756;BME280;32506;52.826;-1.192;2023-08-30T01:18:27;100146.19;;;10.91;54.85
46756;BME280;32506;52.826;-1.192;2023-08-30T01:20:55;100147.03;;;10.92;54.67
46756;BME280;32506;52.826;-1.192;2023-08-30T01:23:39;100148.88;;;10.91;54.61
46756;BME280;32506;52.826;-1.192;2023-08-30T01:26:13;100135.75;;;10.90;54.96
46756;BME280;32506;52.826;-1.192;2023-08-30T01:28:39;100132.25;;;10.89;55.04
46756;BME280;32506;52.826;-1.192;2023-08-30T01:31:07;100126.69;;;10.91;54.91
46756;BME280;32506;52.826;-1.192;2023-08-30T01:33:38;100125.88;;;10.90;55.20
46756;BME280;32506;52.826;-1.192;2023-08-30T01:36:04;100123.22;;;10.90;55.36
46756;BME280;32506;52.826;-1.192;2023-08-30T01:38:31;100120.53;;;10.90;55.27
46756;BME280;32506;52.826;-1.192;2023-08-30T01:40:59;100121.09;;;10.93;55.52
46756;BME280;32506;52.826;-1.192;2023-08-30T01:43:27;100118.66;;;10.91;55.38
46756;BME280;32506;52.826;-1.192;2023-08-30T01:45:54;100123.78;;;10.93;55.29
46756;BME280;32506;52.826;-1.192;2023-08-30T01:48:22;100122.75;;;10.94;55.23
46756;BME280;32506;52.826;-1.192;2023-08-30T01:50:49;100132.63;;;10.93;55.34
46756;BME280;32506;52.826;-1.192;2023-08-30T01:53:17;100125.41;;;10.94;55.42
46756;BME280;32506;52.826;-1.192;2023-08-30T01:55:44;100126.44;;;10.93;55.35
46756;BME280;32506;52.826;-1.192;2023-08-30T01:58:10;100130.75;;;10.94;55.68
46756;BME280;32506;52.826;-1.192;2023-08-30T02:00:36;100119.03;;;10.95;55.50
46756;BME280;32506;52.826;-1.192;2023-08-30T02:03:12;100123.31;;;10.96;55.86
46756;BME280;32506;52.826;-1.192;2023-08-30T02:08:16;100119.03;;;10.95;55.77
46756;BME280;32506;52.826;-1.192;2023-08-30T02:10:50;100119.84;;;10.95;56.62
46756;BME280;32506;52.826;-1.192;2023-08-30T02:13:19;100118.81;;;10.96;56.83
46756;BME280;32506;52.826;-1.192;2023-08-30T02:15:47;100117.16;;;10.95;56.56
46756;BME280;32506;52.826;-1.192;2023-08-30T02:18:14;100114.50;;;10.95;56.45
46756;BME280;32506;52.826;-1.192;2023-08-30T02:20:40;100108.13;;;10.96;56.23
46756;BME280;32506;52.826;-1.192;2023-08-30T02:23:05;100104.59;;;10.96;56.67
46756;BME280;32506;52.826;-1.192;2023-08-30T02:25:30;100114.25;;;10.97;56.26
46756;BME280;32506;52.826;-1.192;2023-08-30T02:27:56;100115.28;;;10.96;56.57
46756;BME280;32506;52.826;-1.192;2023-08-30T02:30:21;100112.84;;;10.94;56.46
46756;BME280;32506;52.826;-1.192;2023-08-30T02:32:47;100112.84;;;10.94;56.61
46756;BME280;32506;52.826;-1.192;2023-08-30T02:35:12;100117.41;;;10.94;56.20
46756;BME280;32506;52.826;-1.192;2023-08-30T02:37:37;100097.88;;;10.93;56.35
46756;BME280;32506;52.826;-1.192;2023-08-30T02:40:05;100103.44;;;10.91;56.48
46756;BME280;32506;52.826;-1.192;2023-08-30T02:42:31;100095.41;;;10.91;56.58
46756;BME280;32506;52.826;-1.192;2023-08-30T02:44:57;100104.25;;;10.92;56.17
46756;BME280;32506;52.826;-1.192;2023-08-30T02:47:22;100105.28;;;10.91;56.20
46756;BME280;32506;52.826;-1.192;2023-08-30T02:49:47;100106.34;;;10.90;56.53
46756;BME280;32506;52.826;-1.192;2023-08-30T02:52:13;100113.31;;;10.91;56.88
46756;BME280;32506;52.826;-1.192;2023-08-30T02:54:38;100109.00;;;10.90;56.87
46756;BME280;32506;52.826;-1.192;2023-08-30T02:57:04;100101.81;;;10.90;56.76
46756;BME280;32506;52.826;-1.192;2023-08-30T02:59:29;100105.28;;;10.91;56.65
46756;BME280;32506;52.826;-1.192;2023-08-30T03:01:55;100110.19;;;10.94;56.63
46756;BME280;32506;52.826;-1.192;2023-08-30T03:04:20;100113.69;;;10.95;57.10
46756;BME280;32506;52.826;-1.192;2023-08-30T03:06:46;100110.78;;;10.96;57.18
46756;BME280;32506;52.826;-1.192;2023-08-30T03:09:14;100107.06;;;10.97;57.44
46756;BME280;32506;52.826;-1.192;2023-08-30T03:11:39;100103.34;;;10.98;57.60
46756;BME280;32506;52.826;-1.192;2023-08-30T03:14:05;100100.66;;;10.98;57.60
46756;BME280;32506;52.826;-1.192;2023-08-30T03:16:30;100094.28;;;10.99;57.67
46756;BME280;32506;52.826;-1.192;2023-08-30T03:18:56;100101.25;;;11.00;57.37
46756;BME280;32506;52.826;-1.192;2023-08-30T03:21:21;100100.22;;;11.01;57.80
46756;BME280;32506;52.826;-1.192;2023-08-30T03:23:47;100103.47;;;11.03;58.17
46756;BME280;32506;52.826;-1.192;2023-08-30T03:26:14;100097.09;;;11.04;58.46
46756;BME280;32506;52.826;-1.192;2023-08-30T03:28:40;100096.06;;;11.05;58.28
46756;BME280;32506;52.826;-1.192;2023-08-30T03:31:13;100096.63;;;11.07;58.14
46756;BME280;32506;52.826;-1.192;2023-08-30T03:33:39;100089.44;;;11.08;57.68
46756;BME280;32506;52.826;-1.192;2023-08-30T03:36:07;100089.22;;;11.10;57.90
46756;BME280;32506;52.826;-1.192;2023-08-30T03:38:34;100097.00;;;11.11;58.08
46756;BME280;32506;52.826;-1.192;2023-08-30T03:40:59;100089.78;;;11.12;58.29
46756;BME280;32506;52.826;-1.192;2023-08-30T03:43:25;100091.19;;;11.14;57.72
46756;BME280;32506;52.826;-1.192;2023-08-30T03:45:50;100083.16;;;11.14;58.03
46756;BME280;32506;52.826;-1.192;2023-08-30T03:48:17;100081.31;;;11.15;57.79
46756;BME280;32506;52.826;-1.192;2023-08-30T03:50:42;100077.56;;;11.16;58.04
46756;BME280;32506;52.826;-1.192;2023-08-30T03:53:08;100076.78;;;11.15;58.30
46756;BME280;32506;52.826;-1.192;2023-08-30T03:55:33;100080.06;;;11.17;57.94
46756;BME280;32506;52.826;-1.192;2023-08-30T03:57:59;100078.41;;;11.16;58.20
46756;BME280;32506;52.826;-1.192;2023-08-30T04:00:24;100075.72;;;11.16;57.77
46756;BME280;32506;52.826;-1.192;2023-08-30T04:02:50;100080.84;;;11.18;57.79
46756;BME280;32506;52.826;-1.192;2023-08-30T04:05:15;100084.34;;;11.18;57.70
46756;BME280;32506;52.826;-1.192;2023-08-30T04:07:41;100081.66;;;11.18;57.98
46756;BME280;32506;52.826;-1.192;2023-08-30T04:10:06;100086.19;;;11.18;57.90
46756;BME280;32506;52.826;-1.192;2023-08-30T04:12:33;100089.69;;;11.18;57.69
46756;BME280;32506;52.826;-1.192;2023-08-30T04:15:00;100092.34;;;11.18;57.27
46756;BME280;32506;52.826;-1.192;2023-08-30T04:17:26;100094.47;;;11.16;57.42
46756;BME280;32506;52.826;-1.192;2023-08-30T04:19:52;100093.63;;;11.16;57.23
46756;BME280;32506;52.826;-1.192;2023-08-30T04:22:18;100095.50;;;11.15;57.28
46756;BME280;32506;52.826;-1.192;2023-08-30T04:24:43;100096.53;;;11.14;57.45
46756;BME280;32506;52.826;-1.192;2023-08-30T04:27:09;100090.38;;;11.14;57.15
46756;BME280;32506;52.826;-1.192;2023-08-30T04:29:34;100084.19;;;11.13;57.20
46756;BME280;32506;52.826;-1.192;2023-08-30T04:31:59;100086.06;;;11.13;57.27
46756;BME280;32506;52.826;-1.192;2023-08-30T04:34:26;100084.19;;;11.13;57.17
46756;BME280;32506;52.826;-1.192;2023-08-30T04:36:51;100090.63;;;11.12;57.10
46756;BME280;32506;52.826;-1.192;2023-08-30T04:39:17;100088.97;;;11.11;56.81
46756;BME280;32506;52.826;-1.192;2023-08-30T04:41:42;100094.31;;;11.11;57.15
46756;BME280;32506;52.826;-1.192;2023-08-30T04:44:08;100096.19;;;11.11;57.35
46756;BME280;32506;52.826;-1.192;2023-08-30T04:46:33;100098.63;;;11.12;57.14
46756;BME280;32506;52.826;-1.192;2023-08-30T04:48:59;100085.25;;;11.12;57.17
46756;BME280;32506;52.826;-1.192;2023-08-30T04:51:24;100095.13;;;11.12;56.89
46756;BME280;32506;52.826;-1.192;2023-08-30T04:53:49;100094.91;;;11.13;57.44
46756;BME280;32506;52.826;-1.192;2023-08-30T04:56:15;100100.03;;;11.15;57.31
46756;BME280;32506;52.826;-1.192;2023-08-30T04:58:43;100101.88;;;11.14;57.26
46756;BME280;32506;52.826;-1.192;2023-08-30T05:01:08;100097.94;;;11.17;57.66
46756;BME280;32506;52.826;-1.192;2023-08-30T05:03:34;100099.81;;;11.16;57.41
46756;BME280;32506;52.826;-1.192;2023-08-30T05:06:00;100102.25;;;11.18;57.21
46756;BME280;32506;52.826;-1.192;2023-08-30T05:08:25;100103.06;;;11.18;57.30
46756;BME280;32506;52.826;-1.192;2023-08-30T05:10:54;100101.22;;;11.19;57.24
46756;BME280;32506;52.826;-1.192;2023-08-30T05:13:19;100107.13;;;11.21;57.22
46756;BME280;32506;52.826;-1.192;2023-08-30T05:15:45;100103.66;;;11.20;57.65
46756;BME280;32506;52.826;-1.192;2023-08-30T05:18:10;100110.41;;;11.23;57.35
46756;BME280;32506;52.826;-1.192;2023-08-30T05:20:36;100114.13;;;11.22;57.44
46756;BME280;32506;52.826;-1.192;2023-08-30T05:23:01;100110.41;;;11.23;57.24
46756;BME280;32506;52.826;-1.192;2023-08-30T05:25:27;100105.06;;;11.23;57.35
46756;BME280;32506;52.826;-1.192;2023-08-30T05:27:53;100105.88;;;11.23;56.96
46756;BME280;32506;52.826;-1.192;2023-08-30T05:30:19;100107.72;;;11.23;56.71
46756;BME280;32506;52.826;-1.192;2023-08-30T05:32:47;100099.47;;;11.24;57.17
46756;BME280;32506;52.826;-1.192;2023-08-30T05:35:13;100093.09;;;11.25;57.24
46756;BME280;32506;52.826;-1.192;2023-08-30T05:37:38;100094.13;;;11.24;56.76
46756;BME280;32506;52.826;-1.192;2023-08-30T05:40:04;100101.13;;;11.25;57.00
46756;BME280;32506;52.826;-1.192;2023-08-30T05:42:30;100096.56;;;11.26;56.80
46756;BME280;32506;52.826;-1.192;2023-08-30T05:44:55;100100.88;;;11.27;57.00
46756;BME280;32506;52.826;-1.192;2023-08-30T05:47:21;100096.34;;;11.28;57.25
46756;BME280;32506;52.826;-1.192;2023-08-30T05:49:47;100087.28;;;11.29;57.35
46756;BME280;32506;52.826;-1.192;2023-08-30T05:52:14;100098.56;;;11.31;57.32
46756;BME280;32506;52.826;-1.192;2023-08-30T05:54:47;100091.34;;;11.31;57.46
46756;BME280;32506;52.826;-1.192;2023-08-30T05:57:12;100100.19;;;11.32;57.29
46756;BME280;32506;52.826;-1.192;2023-08-30T05:59:38;100089.25;;;11.33;57.47
46756;BME280;32506;52.826;-1.192;2023-08-30T06:02:03;100092.75;;;11.34;57.56
46756;BME280;32506;52.826;-1.192;2023-08-30T06:04:29;100098.69;;;11.36;58.07
46756;BME280;32506;52.826;-1.192;2023-08-30T06:06:55;100093.13;;;11.37;58.04
46756;BME280;32506;52.826;-1.192;2023-08-30T06:09:20;100095.56;;;11.39;57.96
46756;BME280;32506;52.826;-1.192;2023-08-30T06:11:46;100100.69;;;11.40;57.84
46756;BME280;32506;52.826;-1.192;2023-08-30T06:14:11;100099.63;;;11.41;58.29
46756;BME280;32506;52.826;-1.192;2023-08-30T06:19:16;100100.22;;;11.44;58.56
46756;BME280;32506;52.826;-1.192;2023-08-30T06:21:41;100097.28;;;11.45;58.88
46756;BME280;32506;52.826;-1.192;2023-08-30T06:24:06;100097.91;;;11.47;59.29
46756;BME280;32506;52.826;-1.192;2023-08-30T06:26:32;100107.31;;;11.50;59.34
46756;BME280;32506;52.826;-1.192;2023-08-30T06:28:58;100106.28;;;11.51;59.70
46756;BME280;32506;52.826;-1.192;2023-08-30T06:31:23;100110.56;;;11.52;59.40
46756;BME280;32506;52.826;-1.192;2023-08-30T06:33:49;100103.16;;;11.54;59.34
46756;BME280;32506;52.826;-1.192;2023-08-30T06:36:16;100109.91;;;11.56;59.14
46756;BME280;32506;52.826;-1.192;2023-08-30T06:38:43;100106.75;;;11.59;59.95
46756;BME280;32506;52.826;-1.192;2023-08-30T06:41:08;100105.47;;;11.62;59.51
46756;BME280;32506;52.826;-1.192;2023-08-30T06:43:33;100101.75;;;11.63;60.00
46756;BME280;32506;52.826;-1.192;2023-08-30T06:45:59;100108.50;;;11.66;60.36
46756;BME280;32506;52.826;-1.192;2023-08-30T06:48:24;100109.91;;;11.68;60.52
46756;BME280;32506;52.826;-1.192;2023-08-30T06:50:50;100110.47;;;11.70;60.73
46756;BME280;32506;52.826;-1.192;2023-08-30T06:53:15;100104.88;;;11.72;60.79
46756;BME280;32506;52.826;-1.192;2023-08-30T06:55:41;100102.81;;;11.74;60.67
46756;BME280;32506;52.826;-1.192;2023-08-30T06:58:06;100105.00;;;11.77;60.49
46756;BME280;32506;52.826;-1.192;2023-08-30T07:00:31;100101.88;;;11.80;60.29
46756;BME280;32506;52.826;-1.192;2023-08-30T07:02:57;100113.16;;;11.82;60.87
46756;BME280;32506;52.826;-1.192;2023-08-30T07:05:23;100111.06;;;11.84;60.62
46756;BME280;32506;52.826;-1.192;2023-08-30T07:07:48;100100.94;;;11.86;60.34
46756;BME280;32506;52.826;-1.192;2023-08-30T07:10:17;100113.06;;;11.89;60.26
46756;BME280;32506;52.826;-1.192;2023-08-30T07:12:42;100102.91;;;11.91;60.63
46756;BME280;32506;52.826;-1.192;2023-08-30T07:15:08;100107.81;;;11.94;60.43
46756;BME280;32506;52.826;-1.192;2023-08-30T07:17:34;100112.50;;;11.99;61.03
46756;BME280;32506;52.826;-1.192;2023-08-30T07:19:59;100110.97;;;12.03;60.91
46756;BME280;32506;52.826;-1.192;2023-08-30T07:22:24;100107.63;;;12.07;61.71
46756;BME280;32506;52.826;-1.192;2023-08-30T07:24:50;100115.78;;;12.13;61.77
46756;BME280;32506;52.826;-1.192;2023-08-30T07:27:16;100112.38;;;12.17;61.69
46756;BME280;32506;52.826;-1.192;2023-08-30T07:29:41;100115.16;;;12.22;62.16
46756;BME280;32506;52.826;-1.192;2023-08-30T07:32:07;100112.00;;;12.25;61.62
46756;BME280;32506;52.826;-1.192;2023-08-30T07:34:33;100107.00;;;12.29;61.65
46756;BME280;32506;52.826;-1.192;2023-08-30T07:36:59;100111.66;;;12.34;62.36
46756;BME280;32506;52.826;-1.192;2023-08-30T07:39:25;100112.78;;;12.38;62.16
46756;BME280;32506;52.826;-1.192;2023-08-30T07:41:50;100113.16;;;12.41;61.79
46756;BME280;32506;52.826;-1.192;2023-08-30T07:44:15;100116.75;;;12.47;62.17
46756;BME280;32506;52.826;-1.192;2023-08-30T07:46:41;100124.66;;;12.54;62.23
46756;BME280;32506;52.826;-1.192;2023-08-30T07:49:07;100121.28;;;12.58;62.80
46756;BME280;32506;52.826;-1.192;2023-08-30T07:51:32;100124.63;;;12.66;62.80
46756;BME280;32506;52.826;-1.192;2023-08-30T07:53:58;100113.75;;;12.72;62.92
46756;BME280;32506;52.826;-1.192;2023-08-30T07:56:23;100117.13;;;12.80;63.15
46756;BME280;32506;52.826;-1.192;2023-08-30T07:58:49;100109.50;;;12.88;63.39
46756;BME280;32506;52.826;-1.192;2023-08-30T08:01:14;100115.09;;;12.99;63.72
46756;BME280;32506;52.826;-1.192;2023-08-30T08:03:40;100109.88;;;13.09;63.69
46756;BME280;32506;52.826;-1.192;2023-08-30T08:06:08;100107.13;;;13.21;64.22
46756;BME280;32506;52.826;-1.192;2023-08-30T08:08:34;100108.97;;;13.32;64.79
46756;BME280;32506;52.826;-1.192;2023-08-30T08:10:59;100109.97;;;13.43;64.59
46756;BME280;32506;52.826;-1.192;2023-08-30T08:13:25;100120.16;;;13.58;64.32
46756;BME280;32506;52.826;-1.192;2023-08-30T08:15:51;100113.63;;;13.71;64.54
46756;BME280;32506;52.826;-1.192;2023-08-30T08:18:16;100120.28;;;13.85;64.33
46756;BME280;32506;52.826;-1.192;2023-08-30T08:20:42;100119.94;;;13.99;64.75
46756;BME280;32506;52.826;-1.192;2023-08-30T08:23:08;100118.53;;;14.13;64.89
46756;BME280;32506;52.826;-1.192;2023-08-30T08:25:33;100114.38;;;14.22;64.52
46756;BME280;32506;52.826;-1.192;2023-08-30T08:27:59;100118.56;;;14.35;64.00
46756;BME280;32506;52.826;-1.192;2023-08-30T08:30:24;100118.94;;;14.44;63.65
46756;BME280;32506;52.826;-1.192;2023-08-30T08:32:50;100115.56;;;14.54;63.54
46756;BME280;32506;52.826;-1.192;2023-08-30T08:35:15;100118.41;;;14.64;63.55
46756;BME280;32506;52.826;-1.192;2023-08-30T08:37:41;100115.59;;;14.76;63.38
46756;BME280;32506;52.826;-1.192;2023-08-30T08:40:07;100117.06;;;14.89;63.22
46756;BME280;32506;52.826;-1.192;2023-08-30T08:42:36;100125.00;;;15.01;63.22
46756;BME280;32506;52.826;-1.192;2023-08-30T08:45:04;100118.16;;;15.15;63.61
46756;BME280;32506;52.826;-1.192;2023-08-30T08:47:30;100120.44;;;15.29;63.34
46756;BME280;32506;52.826;-1.192;2023-08-30T08:49:57;100116.75;;;15.40;63.29
46756;BME280;32506;52.826;-1.192;2023-08-30T08:52:26;100119.84;;;15.54;63.01
46756;BME280;32506;52.826;-1.192;2023-08-30T08:54:54;100112.66;;;15.65;62.92
46756;BME280;32506;52.826;-1.192;2023-08-30T08:57:20;100114.03;;;15.72;62.32
46756;BME280;32506;52.826;-1.192;2023-08-30T08:59:46;100113.63;;;15.81;62.04
46756;BME280;32506;52.826;-1.192;2023-08-30T09:02:21;100109.59;;;15.88;61.73
46756;BME280;32506;52.826;-1.192;2023-08-30T09:05:19;100117.47;;;15.95;61.41
46756;BME280;32506;52.826;-1.192;2023-08-30T09:07:45;100114.28;;;16.03;61.19
46756;BME280;32506;52.826;-1.192;2023-08-30T09:10:11;100113.25;;;16.09;60.95
46756;BME280;32506;52.826;-1.192;2023-08-30T09:12:36;100116.00;;;16.20;61.00
46756;BME280;32506;52.826;-1.192;2023-08-30T09:15:02;100120.31;;;16.26;60.84
46756;BME280;32506;52.826;-1.192;2023-08-30T09:17:39;100106.09;;;16.36;61.10
46756;BME280;32506;52.826;-1.192;2023-08-30T09:20:11;100103.16;;;16.48;61.21
46756;BME280;32506;52.826;-1.192;2023-08-30T09:22:38;100108.34;;;16.59;60.95
46756;BME280;32506;52.826;-1.192;2023-08-30T09:25:08;100116.50;;;16.75;61.10
46756;BME280;32506;52.826;-1.192;2023-08-30T09:27:35;100111.72;;;16.92;61.55
46756;BME280;32506;52.826;-1.192;2023-08-30T09:30:01;100112.28;;;17.10;61.83
46756;BME280;32506;52.826;-1.192;2023-08-30T09:32:26;100103.69;;;17.28;61.56
46756;BME280;32506;52.826;-1.192;2023-08-30T09:34:51;100106.66;;;17.48;61.62
46756;BME280;32506;52.826;-1.192;2023-08-30T09:37:21;100099.34;;;17.69;61.53
46756;BME280;32506;52.826;-1.192;2023-08-30T09:39:50;100111.75;;;17.90;61.99
46756;BME280;32506;52.826;-1.192;2023-08-30T09:42:19;100103.88;;;18.09;61.70
46756;BME280;32506;52.826;-1.192;2023-08-30T09:44:45;100104.09;;;18.28;61.27
46756;BME280;32506;52.826;-1.192;2023-08-30T09:47:12;100100.22;;;18.50;60.84
46756;BME280;32506;52.826;-1.192;2023-08-30T09:49:48;100098.22;;;18.71;60.87
46756;BME280;32506;52.826;-1.192;2023-08-30T09:52:15;100107.38;;;18.91;60.15
46756;BME280;32506;52.826;-1.192;2023-08-30T09:54:42;100104.81;;;19.10;59.72
46756;BME280;32506;52.826;-1.192;2023-08-30T09:57:09;100098.72;;;19.28;59.53
46756;BME280;32506;52.826;-1.192;2023-08-30T09:59:35;100095.81;;;19.49;59.35
46756;BME280;32506;52.826;-1.192;2023-08-30T10:02:01;100096.50;;;19.65;58.78
46756;BME280;32506;52.826;-1.192;2023-08-30T10:04:27;100098.00;;;19.82;58.54
46756;BME280;32506;52.826;-1.192;2023-08-30T10:06:59;100100.84;;;19.95;58.03
46756;BME280;32506;52.826;-1.192;2023-08-30T10:09:32;100101.03;;;20.04;57.80
46756;BME280;32506;52.826;-1.192;2023-08-30T10:11:58;100089.03;;;20.10;57.34
46756;BME280;32506;52.826;-1.192;2023-08-30T10:14:26;100087.84;;;20.17;56.87
46756;BME280;32506;52.826;-1.192;2023-08-30T10:17:01;100103.28;;;20.21;55.96
46756;BME280;32506;52.826;-1.192;2023-08-30T10:19:27;100105.16;;;20.21;55.34
46756;BME280;32506;52.826;-1.192;2023-08-30T10:22:04;100101.38;;;20.22;54.56
46756;BME280;32506;52.826;-1.192;2023-08-30T10:24:36;100103.28;;;20.21;53.82
46756;BME280;32506;52.826;-1.192;2023-08-30T10:27:04;100102.47;;;20.21;53.85
46756;BME280;32506;52.826;-1.192;2023-08-30T10:29:32;100108.41;;;20.23;53.67
46756;BME280;32506;52.826;-1.192;2023-08-30T10:32:05;100099.19;;;20.24;53.53
46756;BME280;32506;52.826;-1.192;2023-08-30T10:34:32;100099.97;;;20.24;53.53
46756;BME280;32506;52.826;-1.192;2023-08-30T10:37:03;100105.34;;;20.29;53.41
46756;BME280;32506;52.826;-1.192;2023-08-30T10:39:39;100097.44;;;20.33;52.65
46756;BME280;32506;52.826;-1.192;2023-08-30T10:42:10;100098.75;;;20.36;52.64
46756;BME280;32506;52.826;-1.192;2023-08-30T10:45:03;100104.66;;;20.43;52.62
46756;BME280;32506;52.826;-1.192;2023-08-30T10:47:34;100110.59;;;20.45;52.64
46756;BME280;32506;52.826;-1.192;2023-08-30T10:50:09;100114.34;;;20.49;52.30
46756;BME280;32506;52.826;-1.192;2023-08-30T10:52:35;100127.63;;;20.51;52.01
46756;BME280;32506;52.826;-1.192;2023-08-30T10:55:11;100121.09;;;20.52;51.48
46756;BME280;32506;52.826;-1.192;2023-08-30T10:57:40;100115.16;;;20.50;51.73
46756;BME280;32506;52.826;-1.192;2023-08-30T11:00:19;100119.75;;;20.49;51.64
46756;BME280;32506;52.826;-1.192;2023-08-30T11:02:50;100120.94;;;20.43;51.64
46756;BME280;32506;52.826;-1.192;2023-08-30T11:05:16;100119.38;;;20.37;51.75
46756;BME280;32506;52.826;-1.192;2023-08-30T11:07:45;100128.38;;;20.32;51.93
46756;BME280;32506;52.826;-1.192;2023-08-30T11:10:12;100121.63;;;20.29;52.06
46756;BME280;32506;52.826;-1.192;2023-08-30T11:12:41;100120.00;;;20.28;52.22
46756;BME280;32506;52.826;-1.192;2023-08-30T11:15:09;100117.59;;;20.27;52.31
46756;BME280;32506;52.826;-1.192;2023-08-30T11:17:34;100118.09;;;20.29;51.99
46756;BME280;32506;52.826;-1.192;2023-08-30T11:20:11;100121.59;;;20.35;52.20
46756;BME280;32506;52.826;-1.192;2023-08-30T11:22:42;100114.41;;;20.44;52.37
46756;BME280;32506;52.826;-1.192;2023-08-30T11:25:08;100109.66;;;20.55;52.62
46756;BME280;32506;52.826;-1.192;2023-08-30T11:27:34;100110.84;;;20.68;52.68
46756;BME280;32506;52.826;-1.192;2023-08-30T11:30:00;100112.56;;;20.83;53.38
46756;BME280;32506;52.826;-1.192;2023-08-30T11:32:32;100105.84;;;20.99;53.31
46756;BME280;32506;52.826;-1.192;2023-08-30T11:34:58;100103.09;;;21.18;53.40
46756;BME280;32506;52.826;-1.192;2023-08-30T11:37:23;100094.91;;;21.37;54.31
46756;BME280;32506;52.826;-1.192;2023-08-30T11:39:52;100086.44;;;21.58;53.50
46756;BME280;32506;52.826;-1.192;2023-08-30T11:42:18;100090.13;;;21.81;53.27
46756;BME280;32506;52.826;-1.192;2023-08-30T11:44:45;100082.34;;;22.02;53.70
46756;BME280;32506;52.826;-1.192;2023-08-30T11:47:10;100080.03;;;22.23;53.29
46756;BME280;32506;52.826;-1.192;2023-08-30T11:49:36;100082.41;;;22.44;53.15
46756;BME280;32506;52.826;-1.192;2023-08-30T11:52:05;100085.78;;;22.63;52.27
46756;BME280;32506;52.826;-1.192;2023-08-30T11:54:31;100091.25;;;22.86;52.24
46756;BME280;32506;52.826;-1.192;2023-08-30T11:56:57;100088.06;;;23.07;52.10
46756;BME280;32506;52.826;-1.192;2023-08-30T11:59:22;100089.19;;;23.28;51.55
46756;BME280;32506;52.826;-1.192;2023-08-30T12:01:54;100088.09;;;23.52;51.14
46756;BME280;32506;52.826;-1.192;2023-08-30T12:04:20;100089.16;;;23.74;50.61
46756;BME280;32506;52.826;-1.192;2023-08-30T12:06:58;100077.41;;;23.96;50.12
46756;BME280;32506;52.826;-1.192;2023-08-30T12:09:33;100080.06;;;24.19;49.15
46756;BME280;32506;52.826;-1.192;2023-08-30T12:12:18;100070.63;;;24.42;49.28
46756;BME280;32506;52.826;-1.192;2023-08-30T12:15:34;100076.81;;;24.66;48.37
46756;BME280;32506;52.826;-1.192;2023-08-30T12:18:15;100073.91;;;24.79;47.92
46756;BME280;32506;52.826;-1.192;2023-08-30T12:21:07;100071.50;;;24.95;47.58
46756;BME280;32506;52.826;-1.192;2023-08-30T12:23:33;100075.50;;;25.07;46.02
46756;BME280;32506;52.826;-1.192;2023-08-30T12:26:06;100076.16;;;25.21;46.00
46756;BME280;32506;52.826;-1.192;2023-08-30T12:28:42;100078.56;;;25.32;45.79
46756;BME280;32506;52.826;-1.192;2023-08-30T12:31:09;100080.16;;;25.41;45.81
46756;BME280;32506;52.826;-1.192;2023-08-30T12:33:39;100085.94;;;25.49;44.47
46756;BME280;32506;52.826;-1.192;2023-08-30T12:36:08;100084.47;;;25.51;44.09
46756;BME280;32506;52.826;-1.192;2023-08-30T12:38:34;100090.44;;;25.53;43.70
46756;BME280;32506;52.826;-1.192;2023-08-30T12:40:59;100087.03;;;25.56;43.04
46756;BME280;32506;52.826;-1.192;2023-08-30T12:43:24;100093.00;;;25.58;41.49
46756;BME280;32506;52.826;-1.192;2023-08-30T12:45:50;100093.13;;;25.62;41.33